sensor_id;sensor_type;location;lat;lon;timestamp;P1;durP1;ratioP1;P2;durP2;ratioP2
7231;SDS011;3657;49.630;11.018;2022-07-10T00:00:09;5.17;;;5.07;;
7231;SDS011;3657;49.630;11.018;2022-07-10T00:02:38;5.13;;;5.03;;
7231;SDS011;3657;49.630;11.018;2022-07-10T00:05:05;5.60;;;5.40;;
7231;SDS011;3657;49.630;11.018;2022-07-10T00:07:33;5.00;;;4.90;;
7231;SDS011;3657;49.630;11.018;2022-07-10T00:10:01;4.93;;;4.83;;
7231;SDS011;3657;49.630;11.018;2022-07-10T00:12:29;5.30;;;5.20;;
7231;SDS011;3657;49.630;11.018;2022-07-10T00:14:55;4.87;;;4.77;;
7231;SDS011;3657;49.630;11.018;2022-07-10T00:17:22;4.27;;;4.17;;
7231;SDS011;3657;49.630;11.018;2022-07-10T00:19:49;4.83;;;4.73;;
7231;SDS011;3657;49.630;11.018;2022-07-10T00:22:15;4.80;;;4.70;;
7231;SDS011;3657;49.630;11.018;2022-07-10T00:24:42;4.73;;;4.63;;
7231;SDS011;3657;49.630;11.018;2022-07-10T00:27:10;5.20;;;5.10;;
7231;SDS011;3657;49.630;11.018;2022-07-10T00:29:37;4.80;;;4.70;;
7231;SDS011;3657;49.630;11.018;2022-07-10T00:32:04;5.13;;;5.03;;
7231;SDS011;3657;49.630;11.018;2022-07-10T00:34:31;5.47;;;5.27;;
7231;SDS011;3657;49.630;11.018;2022-07-10T00:36:58;5.20;;;5.10;;
7231;SDS011;3657;49.630;11.018;2022-07-10T00:39:25;5.93;;;5.83;;
7231;SDS011;3657;49.630;11.018;2022-07-10T00:41:51;4.50;;;4.40;;
7231;SDS011;3657;49.630;11.018;2022-07-10T00:44:19;4.70;;;4.60;;
7231;SDS011;3657;49.630;11.018;2022-07-10T00:46:46;5.10;;;4.90;;
7231;SDS011;3657;49.630;11.018;2022-07-10T00:49:13;4.97;;;4.87;;
7231;SDS011;3657;49.630;11.018;2022-07-10T00:51:39;5.10;;;5.00;;
7231;SDS011;3657;49.630;11.018;2022-07-10T00:54:06;5.07;;;4.97;;
7231;SDS011;3657;49.630;11.018;2022-07-10T00:56:33;5.10;;;5.00;;
7231;SDS011;3657;49.630;11.018;2022-07-10T00:59:00;4.73;;;4.53;;
7231;SDS011;3657;49.630;11.018;2022-07-10T01:01:28;4.90;;;4.80;;
7231;SDS011;3657;49.630;11.018;2022-07-10T01:03:55;5.33;;;5.13;;
7231;SDS011;3657;49.630;11.018;2022-07-10T01:06:22;5.00;;;4.90;;
7231;SDS011;3657;49.630;11.018;2022-07-10T01:08:49;5.63;;;5.53;;
7231;SDS011;3657;49.630;11.018;2022-07-10T01:11:15;5.47;;;5.37;;
7231;SDS011;3657;49.630;11.018;2022-07-10T01:13:43;6.60;;;6.30;;
7231;SDS011;3657;49.630;11.018;2022-07-10T01:16:10;5.10;;;5.00;;
7231;SDS011;3657;49.630;11.018;2022-07-10T01:18:38;5.30;;;5.20;;
7231;SDS011;3657;49.630;11.018;2022-07-10T01:21:06;5.17;;;5.07;;
7231;SDS011;3657;49.630;11.018;2022-07-10T01:23:49;5.73;;;5.53;;
7231;SDS011;3657;49.630;11.018;2022-07-10T01:26:16;5.40;;;5.20;;
7231;SDS011;3657;49.630;11.018;2022-07-10T01:28:43;5.13;;;5.03;;
7231;SDS011;3657;49.630;11.018;2022-07-10T01:31:10;5.07;;;4.97;;
7231;SDS011;3657;49.630;11.018;2022-07-10T01:33:36;5.40;;;5.30;;
7231;SDS011;3657;49.630;11.018;2022-07-10T01:36:03;5.13;;;5.03;;
7231;SDS011;3657;49.630;11.018;2022-07-10T01:38:31;4.80;;;4.70;;
7231;SDS011;3657;49.630;11.018;2022-07-10T01:40:58;5.23;;;5.13;;
7231;SDS011;3657;49.630;11.018;2022-07-10T01:43:25;5.43;;;5.33;;
7231;SDS011;3657;49.630;11.018;2022-07-10T01:45:51;5.57;;;5.43;;
7231;SDS011;3657;49.630;11.018;2022-07-10T01:48:18;5.57;;;5.37;;
7231;SDS011;3657;49.630;11.018;2022-07-10T01:50:45;6.03;;;5.83;;
7231;SDS011;3657;49.630;11.018;2022-07-10T01:53:11;5.60;;;5.37;;
7231;SDS011;3657;49.630;11.018;2022-07-10T01:55:39;6.03;;;5.83;;
7231;SDS011;3657;49.630;11.018;2022-07-10T01:58:06;5.00;;;4.90;;
7231;SDS011;3657;49.630;11.018;2022-07-10T02:00:33;5.60;;;5.50;;
7231;SDS011;3657;49.630;11.018;2022-07-10T02:02:59;5.23;;;5.13;;
7231;SDS011;3657;49.630;11.018;2022-07-10T02:05:44;5.47;;;5.37;;
7231;SDS011;3657;49.630;11.018;2022-07-10T02:08:11;5.90;;;5.70;;
7231;SDS011;3657;49.630;11.018;2022-07-10T02:10:39;5.43;;;5.33;;
7231;SDS011;3657;49.630;11.018;2022-07-10T02:13:06;4.93;;;4.83;;
7231;SDS011;3657;49.630;11.018;2022-07-10T02:15:34;5.40;;;5.20;;
7231;SDS011;3657;49.630;11.018;2022-07-10T02:18:01;5.13;;;5.00;;
7231;SDS011;3657;49.630;11.018;2022-07-10T02:20:28;5.07;;;4.97;;
7231;SDS011;3657;49.630;11.018;2022-07-10T02:22:57;5.17;;;5.07;;
7231;SDS011;3657;49.630;11.018;2022-07-10T02:25:24;4.60;;;4.50;;
7231;SDS011;3657;49.630;11.018;2022-07-10T02:27:52;4.67;;;4.57;;
7231;SDS011;3657;49.630;11.018;2022-07-10T02:30:19;4.90;;;4.80;;
7231;SDS011;3657;49.630;11.018;2022-07-10T02:32:45;4.30;;;4.20;;
7231;SDS011;3657;49.630;11.018;2022-07-10T02:35:12;4.80;;;4.70;;
7231;SDS011;3657;49.630;11.018;2022-07-10T02:37:39;4.30;;;4.20;;
7231;SDS011;3657;49.630;11.018;2022-07-10T02:40:06;5.03;;;4.93;;
7231;SDS011;3657;49.630;11.018;2022-07-10T02:42:34;4.90;;;4.77;;
7231;SDS011;3657;49.630;11.018;2022-07-10T02:45:02;4.73;;;4.63;;
7231;SDS011;3657;49.630;11.018;2022-07-10T02:47:29;4.90;;;4.80;;
7231;SDS011;3657;49.630;11.018;2022-07-10T02:49:56;4.80;;;4.70;;
7231;SDS011;3657;49.630;11.018;2022-07-10T02:52:22;4.67;;;4.50;;
7231;SDS011;3657;49.630;11.018;2022-07-10T02:54:49;4.23;;;4.13;;
7231;SDS011;3657;49.630;11.018;2022-07-10T02:57:16;4.00;;;3.90;;
7231;SDS011;3657;49.630;11.018;2022-07-10T02:59:42;4.43;;;4.33;;
7231;SDS011;3657;49.630;11.018;2022-07-10T03:02:10;5.13;;;5.03;;
7231;SDS011;3657;49.630;11.018;2022-07-10T03:04:37;4.33;;;4.23;;
7231;SDS011;3657;49.630;11.018;2022-07-10T03:07:04;3.90;;;3.80;;
7231;SDS011;3657;49.630;11.018;2022-07-10T03:09:31;4.70;;;4.50;;
7231;SDS011;3657;49.630;11.018;2022-07-10T03:11:58;4.37;;;4.27;;
7231;SDS011;3657;49.630;11.018;2022-07-10T03:14:25;3.57;;;3.47;;
7231;SDS011;3657;49.630;11.018;2022-07-10T03:16:52;4.13;;;4.03;;
7231;SDS011;3657;49.630;11.018;2022-07-10T03:19:20;3.77;;;3.67;;
7231;SDS011;3657;49.630;11.018;2022-07-10T03:21:47;3.80;;;3.70;;
7231;SDS011;3657;49.630;11.018;2022-07-10T03:24:13;4.03;;;3.93;;
7231;SDS011;3657;49.630;11.018;2022-07-10T03:26:40;3.83;;;3.73;;
7231;SDS011;3657;49.630;11.018;2022-07-10T03:29:06;3.90;;;3.80;;
7231;SDS011;3657;49.630;11.018;2022-07-10T03:31:33;3.70;;;3.50;;
7231;SDS011;3657;49.630;11.018;2022-07-10T03:34:00;3.73;;;3.63;;
7231;SDS011;3657;49.630;11.018;2022-07-10T03:36:28;3.97;;;3.87;;
7231;SDS011;3657;49.630;11.018;2022-07-10T03:38:54;3.73;;;3.63;;
7231;SDS011;3657;49.630;11.018;2022-07-10T03:41:21;3.80;;;3.70;;
7231;SDS011;3657;49.630;11.018;2022-07-10T03:43:48;3.57;;;3.47;;
7231;SDS011;3657;49.630;11.018;2022-07-10T03:46:15;3.80;;;3.70;;
7231;SDS011;3657;49.630;11.018;2022-07-10T03:48:41;4.93;;;4.73;;
7231;SDS011;3657;49.630;11.018;2022-07-10T03:51:08;4.33;;;4.23;;
7231;SDS011;3657;49.630;11.018;2022-07-10T03:53:36;3.67;;;3.57;;
7231;SDS011;3657;49.630;11.018;2022-07-10T03:56:03;4.67;;;4.47;;
7231;SDS011;3657;49.630;11.018;2022-07-10T03:58:30;4.20;;;4.00;;
7231;SDS011;3657;49.630;11.018;2022-07-10T04:00:56;4.00;;;3.90;;
7231;SDS011;3657;49.630;11.018;2022-07-10T04:03:22;4.60;;;4.40;;
7231;SDS011;3657;49.630;11.018;2022-07-10T04:05:49;4.33;;;4.23;;
7231;SDS011;3657;49.630;11.018;2022-07-10T04:08:16;3.73;;;3.50;;
7231;SDS011;3657;49.630;11.018;2022-07-10T04:10:43;4.00;;;3.80;;
7231;SDS011;3657;49.630;11.018;2022-07-10T04:13:10;3.70;;;3.60;;
7231;SDS011;3657;49.630;11.018;2022-07-10T04:15:37;4.10;;;4.00;;
7231;SDS011;3657;49.630;11.018;2022-07-10T04:18:03;4.70;;;4.50;;
7231;SDS011;3657;49.630;11.018;2022-07-10T04:20:30;4.10;;;4.00;;
7231;SDS011;3657;49.630;11.018;2022-07-10T04:22:57;3.57;;;3.47;;
7231;SDS011;3657;49.630;11.018;2022-07-10T04:25:23;3.80;;;3.70;;
7231;SDS011;3657;49.630;11.018;2022-07-10T04:27:51;3.57;;;3.47;;
7231;SDS011;3657;49.630;11.018;2022-07-10T04:30:18;3.53;;;3.43;;
7231;SDS011;3657;49.630;11.018;2022-07-10T04:32:45;3.20;;;3.10;;
7231;SDS011;3657;49.630;11.018;2022-07-10T04:35:12;3.03;;;2.93;;
7231;SDS011;3657;49.630;11.018;2022-07-10T04:37:38;3.70;;;3.50;;
7231;SDS011;3657;49.630;11.018;2022-07-10T04:40:05;4.10;;;3.83;;
7231;SDS011;3657;49.630;11.018;2022-07-10T04:42:33;3.17;;;3.07;;
7231;SDS011;3657;49.630;11.018;2022-07-10T04:45:01;3.40;;;3.30;;
7231;SDS011;3657;49.630;11.018;2022-07-10T04:47:28;3.33;;;3.23;;
7231;SDS011;3657;49.630;11.018;2022-07-10T04:49:54;3.10;;;2.97;;
7231;SDS011;3657;49.630;11.018;2022-07-10T04:52:21;3.30;;;3.10;;
7231;SDS011;3657;49.630;11.018;2022-07-10T04:54:51;3.40;;;3.30;;
7231;SDS011;3657;49.630;11.018;2022-07-10T04:57:17;3.10;;;3.00;;
7231;SDS011;3657;49.630;11.018;2022-07-10T04:59:44;3.60;;;3.40;;
7231;SDS011;3657;49.630;11.018;2022-07-10T05:02:12;3.60;;;3.50;;
7231;SDS011;3657;49.630;11.018;2022-07-10T05:04:39;2.90;;;2.80;;
7231;SDS011;3657;49.630;11.018;2022-07-10T05:07:05;3.53;;;3.33;;
7231;SDS011;3657;49.630;11.018;2022-07-10T05:09:32;3.33;;;3.23;;
7231;SDS011;3657;49.630;11.018;2022-07-10T05:11:59;3.03;;;3.03;;
7231;SDS011;3657;49.630;11.018;2022-07-10T05:14:25;3.40;;;3.23;;
7231;SDS011;3657;49.630;11.018;2022-07-10T05:16:52;3.03;;;2.93;;
7231;SDS011;3657;49.630;11.018;2022-07-10T05:19:20;3.10;;;2.90;;
7231;SDS011;3657;49.630;11.018;2022-07-10T05:21:47;3.27;;;3.17;;
7231;SDS011;3657;49.630;11.018;2022-07-10T05:24:16;3.57;;;3.37;;
7231;SDS011;3657;49.630;11.018;2022-07-10T05:26:43;3.17;;;3.10;;
7231;SDS011;3657;49.630;11.018;2022-07-10T05:29:10;2.90;;;2.80;;
7231;SDS011;3657;49.630;11.018;2022-07-10T05:31:36;3.27;;;3.17;;
7231;SDS011;3657;49.630;11.018;2022-07-10T05:34:03;3.20;;;3.10;;
7231;SDS011;3657;49.630;11.018;2022-07-10T05:36:32;2.40;;;2.30;;
7231;SDS011;3657;49.630;11.018;2022-07-10T05:38:58;2.80;;;2.70;;
7231;SDS011;3657;49.630;11.018;2022-07-10T05:41:25;3.13;;;3.03;;
7231;SDS011;3657;49.630;11.018;2022-07-10T05:43:52;2.93;;;2.90;;
7231;SDS011;3657;49.630;11.018;2022-07-10T05:46:18;3.03;;;2.93;;
7231;SDS011;3657;49.630;11.018;2022-07-10T05:48:45;3.17;;;3.07;;
7231;SDS011;3657;49.630;11.018;2022-07-10T05:51:12;2.97;;;2.87;;
7231;SDS011;3657;49.630;11.018;2022-07-10T05:53:40;2.90;;;2.80;;
7231;SDS011;3657;49.630;11.018;2022-07-10T05:56:06;3.37;;;3.27;;
7231;SDS011;3657;49.630;11.018;2022-07-10T05:58:33;3.17;;;3.07;;
7231;SDS011;3657;49.630;11.018;2022-07-10T06:01:00;2.83;;;2.73;;
7231;SDS011;3657;49.630;11.018;2022-07-10T06:03:27;3.03;;;2.93;;
7231;SDS011;3657;49.630;11.018;2022-07-10T06:05:53;3.10;;;2.90;;
7231;SDS011;3657;49.630;11.018;2022-07-10T06:08:20;3.27;;;3.17;;
7231;SDS011;3657;49.630;11.018;2022-07-10T06:10:48;3.30;;;3.20;;
7231;SDS011;3657;49.630;11.018;2022-07-10T06:13:15;3.07;;;2.93;;
7231;SDS011;3657;49.630;11.018;2022-07-10T06:15:41;3.67;;;3.37;;
7231;SDS011;3657;49.630;11.018;2022-07-10T06:18:08;3.07;;;2.97;;
7231;SDS011;3657;49.630;11.018;2022-07-10T06:20:35;2.97;;;2.87;;
7231;SDS011;3657;49.630;11.018;2022-07-10T06:23:02;3.13;;;3.03;;
7231;SDS011;3657;49.630;11.018;2022-07-10T06:25:28;3.17;;;3.07;;
7231;SDS011;3657;49.630;11.018;2022-07-10T06:27:56;2.93;;;2.77;;
7231;SDS011;3657;49.630;11.018;2022-07-10T06:30:23;2.77;;;2.67;;
7231;SDS011;3657;49.630;11.018;2022-07-10T06:32:50;2.87;;;2.77;;
7231;SDS011;3657;49.630;11.018;2022-07-10T06:35:16;3.00;;;2.90;;
7231;SDS011;3657;49.630;11.018;2022-07-10T06:37:43;3.20;;;3.07;;
7231;SDS011;3657;49.630;11.018;2022-07-10T06:40:11;3.20;;;3.07;;
7231;SDS011;3657;49.630;11.018;2022-07-10T06:42:40;2.83;;;2.80;;
7231;SDS011;3657;49.630;11.018;2022-07-10T06:45:08;2.60;;;2.60;;
7231;SDS011;3657;49.630;11.018;2022-07-10T06:47:35;2.60;;;2.50;;
7231;SDS011;3657;49.630;11.018;2022-07-10T06:50:20;2.77;;;2.67;;
7231;SDS011;3657;49.630;11.018;2022-07-10T06:52:47;2.70;;;2.63;;
7231;SDS011;3657;49.630;11.018;2022-07-10T06:55:14;3.03;;;2.90;;
7231;SDS011;3657;49.630;11.018;2022-07-10T06:57:42;2.43;;;2.40;;
7231;SDS011;3657;49.630;11.018;2022-07-10T07:00:10;2.50;;;2.40;;
7231;SDS011;3657;49.630;11.018;2022-07-10T07:02:38;2.63;;;2.53;;
7231;SDS011;3657;49.630;11.018;2022-07-10T07:05:05;2.67;;;2.57;;
7231;SDS011;3657;49.630;11.018;2022-07-10T07:07:33;2.43;;;2.43;;
7231;SDS011;3657;49.630;11.018;2022-07-10T07:10:00;2.13;;;2.13;;
7231;SDS011;3657;49.630;11.018;2022-07-10T07:12:28;2.20;;;2.10;;
7231;SDS011;3657;49.630;11.018;2022-07-10T07:14:54;2.20;;;2.20;;
7231;SDS011;3657;49.630;11.018;2022-07-10T07:17:22;2.63;;;2.50;;
7231;SDS011;3657;49.630;11.018;2022-07-10T07:19:50;2.27;;;2.20;;
7231;SDS011;3657;49.630;11.018;2022-07-10T07:22:36;1.80;;;1.80;;
7231;SDS011;3657;49.630;11.018;2022-07-10T07:25:20;2.13;;;2.10;;
7231;SDS011;3657;49.630;11.018;2022-07-10T07:27:47;2.10;;;2.00;;
7231;SDS011;3657;49.630;11.018;2022-07-10T07:30:14;2.27;;;2.20;;
7231;SDS011;3657;49.630;11.018;2022-07-10T07:32:43;1.50;;;1.50;;
7231;SDS011;3657;49.630;11.018;2022-07-10T07:35:11;2.20;;;2.20;;
7231;SDS011;3657;49.630;11.018;2022-07-10T07:37:39;1.80;;;1.80;;
7231;SDS011;3657;49.630;11.018;2022-07-10T07:40:07;2.57;;;2.33;;
7231;SDS011;3657;49.630;11.018;2022-07-10T07:42:35;2.13;;;2.10;;
7231;SDS011;3657;49.630;11.018;2022-07-10T07:45:03;2.20;;;2.20;;
7231;SDS011;3657;49.630;11.018;2022-07-10T07:47:30;2.80;;;2.50;;
7231;SDS011;3657;49.630;11.018;2022-07-10T07:50:02;1.87;;;1.87;;
7231;SDS011;3657;49.630;11.018;2022-07-10T07:52:29;2.40;;;2.30;;
7231;SDS011;3657;49.630;11.018;2022-07-10T07:54:56;1.97;;;1.97;;
7231;SDS011;3657;49.630;11.018;2022-07-10T07:57:23;1.80;;;1.80;;
7231;SDS011;3657;49.630;11.018;2022-07-10T07:59:50;2.20;;;2.17;;
7231;SDS011;3657;49.630;11.018;2022-07-10T08:02:16;2.37;;;2.27;;
7231;SDS011;3657;49.630;11.018;2022-07-10T08:04:43;2.20;;;2.10;;
7231;SDS011;3657;49.630;11.018;2022-07-10T08:07:11;1.93;;;1.93;;
7231;SDS011;3657;49.630;11.018;2022-07-10T08:09:38;2.30;;;2.20;;
7231;SDS011;3657;49.630;11.018;2022-07-10T08:12:04;1.90;;;1.80;;
7231;SDS011;3657;49.630;11.018;2022-07-10T08:14:31;2.47;;;2.37;;
7231;SDS011;3657;49.630;11.018;2022-07-10T08:16:58;1.87;;;1.87;;
7231;SDS011;3657;49.630;11.018;2022-07-10T08:19:25;1.77;;;1.67;;
7231;SDS011;3657;49.630;11.018;2022-07-10T08:21:51;1.77;;;1.77;;
7231;SDS011;3657;49.630;11.018;2022-07-10T08:24:19;2.00;;;2.00;;
7231;SDS011;3657;49.630;11.018;2022-07-10T08:26:46;2.00;;;2.00;;
7231;SDS011;3657;49.630;11.018;2022-07-10T08:29:13;2.07;;;2.07;;
7231;SDS011;3657;49.630;11.018;2022-07-10T08:31:43;1.70;;;1.70;;
7231;SDS011;3657;49.630;11.018;2022-07-10T08:34:09;1.83;;;1.83;;
7231;SDS011;3657;49.630;11.018;2022-07-10T08:36:36;2.23;;;2.13;;
7231;SDS011;3657;49.630;11.018;2022-07-10T08:39:03;1.80;;;1.80;;
7231;SDS011;3657;49.630;11.018;2022-07-10T08:41:31;1.90;;;1.90;;
7231;SDS011;3657;49.630;11.018;2022-07-10T08:44:00;1.33;;;1.33;;
7231;SDS011;3657;49.630;11.018;2022-07-10T08:46:27;2.00;;;2.00;;
7231;SDS011;3657;49.630;11.018;2022-07-10T08:48:55;2.00;;;2.00;;
7231;SDS011;3657;49.630;11.018;2022-07-10T08:51:30;1.80;;;1.80;;
7231;SDS011;3657;49.630;11.018;2022-07-10T08:54:03;1.63;;;1.63;;
7231;SDS011;3657;49.630;11.018;2022-07-10T08:56:32;1.80;;;1.80;;
7231;SDS011;3657;49.630;11.018;2022-07-10T08:59:01;1.40;;;1.40;;
7231;SDS011;3657;49.630;11.018;2022-07-10T09:01:29;1.50;;;1.50;;
7231;SDS011;3657;49.630;11.018;2022-07-10T09:03:56;1.57;;;1.57;;
7231;SDS011;3657;49.630;11.018;2022-07-10T09:06:22;1.83;;;1.83;;
7231;SDS011;3657;49.630;11.018;2022-07-10T09:08:59;1.73;;;1.73;;
7231;SDS011;3657;49.630;11.018;2022-07-10T09:11:27;2.33;;;2.23;;
7231;SDS011;3657;49.630;11.018;2022-07-10T09:13:57;1.80;;;1.80;;
7231;SDS011;3657;49.630;11.018;2022-07-10T09:16:25;1.40;;;1.40;;
7231;SDS011;3657;49.630;11.018;2022-07-10T09:18:53;1.80;;;1.80;;
7231;SDS011;3657;49.630;11.018;2022-07-10T09:21:20;2.13;;;2.13;;
7231;SDS011;3657;49.630;11.018;2022-07-10T09:23:47;1.97;;;1.87;;
7231;SDS011;3657;49.630;11.018;2022-07-10T09:26:14;1.70;;;1.70;;
7231;SDS011;3657;49.630;11.018;2022-07-10T09:28:41;2.30;;;2.30;;
7231;SDS011;3657;49.630;11.018;2022-07-10T09:31:09;1.70;;;1.70;;
7231;SDS011;3657;49.630;11.018;2022-07-10T09:33:36;1.87;;;1.87;;
7231;SDS011;3657;49.630;11.018;2022-07-10T09:36:06;1.60;;;1.60;;
7231;SDS011;3657;49.630;11.018;2022-07-10T09:38:50;2.00;;;1.90;;
7231;SDS011;3657;49.630;11.018;2022-07-10T09:41:23;1.93;;;1.93;;
7231;SDS011;3657;49.630;11.018;2022-07-10T09:43:51;1.60;;;1.60;;
7231;SDS011;3657;49.630;11.018;2022-07-10T09:46:22;1.60;;;1.50;;
7231;SDS011;3657;49.630;11.018;2022-07-10T09:49:00;2.37;;;2.20;;
7231;SDS011;3657;49.630;11.018;2022-07-10T09:51:29;1.60;;;1.60;;
7231;SDS011;3657;49.630;11.018;2022-07-10T09:53:57;2.20;;;1.97;;
7231;SDS011;3657;49.630;11.018;2022-07-10T09:56:26;1.67;;;1.67;;
7231;SDS011;3657;49.630;11.018;2022-07-10T09:58:58;2.00;;;1.90;;
7231;SDS011;3657;49.630;11.018;2022-07-10T10:01:27;2.00;;;1.90;;
7231;SDS011;3657;49.630;11.018;2022-07-10T10:03:55;2.30;;;2.20;;
7231;SDS011;3657;49.630;11.018;2022-07-10T10:06:25;1.97;;;1.93;;
7231;SDS011;3657;49.630;11.018;2022-07-10T10:08:55;2.03;;;1.93;;
7231;SDS011;3657;49.630;11.018;2022-07-10T10:11:25;2.10;;;2.00;;
7231;SDS011;3657;49.630;11.018;2022-07-10T10:13:53;2.77;;;2.67;;
7231;SDS011;3657;49.630;11.018;2022-07-10T10:16:19;1.70;;;1.70;;
7231;SDS011;3657;49.630;11.018;2022-07-10T10:18:47;2.53;;;2.43;;
7231;SDS011;3657;49.630;11.018;2022-07-10T10:21:34;2.20;;;2.10;;
7231;SDS011;3657;49.630;11.018;2022-07-10T10:24:02;2.80;;;2.60;;
7231;SDS011;3657;49.630;11.018;2022-07-10T10:26:29;2.33;;;2.27;;
7231;SDS011;3657;49.630;11.018;2022-07-10T10:28:56;1.97;;;1.70;;
7231;SDS011;3657;49.630;11.018;2022-07-10T10:31:25;2.57;;;2.43;;
7231;SDS011;3657;49.630;11.018;2022-07-10T10:33:55;2.10;;;2.00;;
7231;SDS011;3657;49.630;11.018;2022-07-10T10:36:43;2.03;;;1.97;;
7231;SDS011;3657;49.630;11.018;2022-07-10T10:39:11;3.07;;;2.10;;
7231;SDS011;3657;49.630;11.018;2022-07-10T10:41:41;1.90;;;1.90;;
7231;SDS011;3657;49.630;11.018;2022-07-10T10:44:27;2.10;;;2.00;;
7231;SDS011;3657;49.630;11.018;2022-07-10T10:47:00;2.30;;;2.20;;
7231;SDS011;3657;49.630;11.018;2022-07-10T10:52:24;2.60;;;2.50;;
7231;SDS011;3657;49.630;11.018;2022-07-10T10:55:06;2.40;;;2.30;;
7231;SDS011;3657;49.630;11.018;2022-07-10T10:57:35;2.27;;;2.27;;
7231;SDS011;3657;49.630;11.018;2022-07-10T11:00:29;2.37;;;2.33;;
7231;SDS011;3657;49.630;11.018;2022-07-10T11:05:56;1.77;;;1.77;;
7231;SDS011;3657;49.630;11.018;2022-07-10T11:08:36;2.00;;;2.00;;
7231;SDS011;3657;49.630;11.018;2022-07-10T11:14:04;2.37;;;2.27;;
7231;SDS011;3657;49.630;11.018;2022-07-10T11:16:32;2.37;;;2.37;;
7231;SDS011;3657;49.630;11.018;2022-07-10T11:18:59;2.50;;;2.40;;
7231;SDS011;3657;49.630;11.018;2022-07-10T11:21:28;1.70;;;1.70;;
7231;SDS011;3657;49.630;11.018;2022-07-10T11:24:02;1.60;;;1.60;;
7231;SDS011;3657;49.630;11.018;2022-07-10T11:26:40;2.30;;;2.30;;
7231;SDS011;3657;49.630;11.018;2022-07-10T11:29:17;1.90;;;1.90;;
7231;SDS011;3657;49.630;11.018;2022-07-10T11:31:51;2.43;;;2.43;;
7231;SDS011;3657;49.630;11.018;2022-07-10T11:34:18;2.30;;;2.30;;
7231;SDS011;3657;49.630;11.018;2022-07-10T11:36:47;1.90;;;1.90;;
7231;SDS011;3657;49.630;11.018;2022-07-10T11:39:14;1.83;;;1.83;;
7231;SDS011;3657;49.630;11.018;2022-07-10T11:41:42;2.30;;;2.20;;
7231;SDS011;3657;49.630;11.018;2022-07-10T11:44:12;2.10;;;2.10;;
7231;SDS011;3657;49.630;11.018;2022-07-10T11:46:40;1.80;;;1.77;;
7231;SDS011;3657;49.630;11.018;2022-07-10T11:49:09;1.77;;;1.77;;
7231;SDS011;3657;49.630;11.018;2022-07-10T11:51:36;2.20;;;2.20;;
7231;SDS011;3657;49.630;11.018;2022-07-10T11:54:06;2.03;;;2.03;;
7231;SDS011;3657;49.630;11.018;2022-07-10T11:56:35;1.83;;;1.83;;
7231;SDS011;3657;49.630;11.018;2022-07-10T11:59:04;1.90;;;1.80;;
7231;SDS011;3657;49.630;11.018;2022-07-10T12:01:32;2.30;;;2.30;;
7231;SDS011;3657;49.630;11.018;2022-07-10T12:04:01;1.60;;;1.60;;
7231;SDS011;3657;49.630;11.018;2022-07-10T12:06:28;1.50;;;1.50;;
7231;SDS011;3657;49.630;11.018;2022-07-10T12:09:00;2.30;;;2.20;;
7231;SDS011;3657;49.630;11.018;2022-07-10T12:11:29;2.53;;;2.53;;
7231;SDS011;3657;49.630;11.018;2022-07-10T12:14:08;2.23;;;2.20;;
7231;SDS011;3657;49.630;11.018;2022-07-10T12:16:39;2.00;;;1.90;;
7231;SDS011;3657;49.630;11.018;2022-07-10T12:19:07;1.80;;;1.80;;
7231;SDS011;3657;49.630;11.018;2022-07-10T12:21:35;2.40;;;2.30;;
7231;SDS011;3657;49.630;11.018;2022-07-10T12:24:03;2.33;;;2.30;;
7231;SDS011;3657;49.630;11.018;2022-07-10T12:26:35;1.80;;;1.80;;
7231;SDS011;3657;49.630;11.018;2022-07-10T12:29:04;1.50;;;1.50;;
7231;SDS011;3657;49.630;11.018;2022-07-10T12:31:31;2.17;;;2.17;;
7231;SDS011;3657;49.630;11.018;2022-07-10T12:34:00;2.60;;;2.50;;
7231;SDS011;3657;49.630;11.018;2022-07-10T12:36:40;2.10;;;2.10;;
7231;SDS011;3657;49.630;11.018;2022-07-10T12:39:09;2.10;;;2.10;;
7231;SDS011;3657;49.630;11.018;2022-07-10T12:44:29;1.73;;;1.73;;
7231;SDS011;3657;49.630;11.018;2022-07-10T12:46:59;2.30;;;2.30;;
7231;SDS011;3657;49.630;11.018;2022-07-10T12:49:26;2.03;;;2.03;;
7231;SDS011;3657;49.630;11.018;2022-07-10T12:51:53;2.20;;;2.20;;
7231;SDS011;3657;49.630;11.018;2022-07-10T12:54:29;1.87;;;1.80;;
7231;SDS011;3657;49.630;11.018;2022-07-10T12:56:58;2.17;;;2.17;;
7231;SDS011;3657;49.630;11.018;2022-07-10T12:59:26;1.80;;;1.80;;
7231;SDS011;3657;49.630;11.018;2022-07-10T13:01:53;2.33;;;2.30;;
7231;SDS011;3657;49.630;11.018;2022-07-10T13:04:22;2.40;;;2.30;;
7231;SDS011;3657;49.630;11.018;2022-07-10T13:06:52;1.87;;;1.87;;
7231;SDS011;3657;49.630;11.018;2022-07-10T13:09:19;1.87;;;1.87;;
7231;SDS011;3657;49.630;11.018;2022-07-10T13:11:48;1.97;;;1.97;;
7231;SDS011;3657;49.630;11.018;2022-07-10T13:14:16;1.80;;;1.80;;
7231;SDS011;3657;49.630;11.018;2022-07-10T13:16:43;2.07;;;1.97;;
7231;SDS011;3657;49.630;11.018;2022-07-10T13:19:10;2.37;;;2.27;;
7231;SDS011;3657;49.630;11.018;2022-07-10T13:21:37;2.13;;;2.03;;
7231;SDS011;3657;49.630;11.018;2022-07-10T13:24:04;1.67;;;1.67;;
7231;SDS011;3657;49.630;11.018;2022-07-10T13:26:31;1.67;;;1.67;;
7231;SDS011;3657;49.630;11.018;2022-07-10T13:28:58;2.30;;;2.30;;
7231;SDS011;3657;49.630;11.018;2022-07-10T13:31:26;2.30;;;2.30;;
7231;SDS011;3657;49.630;11.018;2022-07-10T13:33:53;2.30;;;2.20;;
7231;SDS011;3657;49.630;11.018;2022-07-10T13:36:19;1.70;;;1.70;;
7231;SDS011;3657;49.630;11.018;2022-07-10T13:38:46;2.60;;;2.60;;
7231;SDS011;3657;49.630;11.018;2022-07-10T13:41:14;2.20;;;2.20;;
7231;SDS011;3657;49.630;11.018;2022-07-10T13:43:41;2.60;;;2.60;;
7231;SDS011;3657;49.630;11.018;2022-07-10T13:46:08;2.10;;;2.10;;
7231;SDS011;3657;49.630;11.018;2022-07-10T13:48:36;2.07;;;2.07;;
7231;SDS011;3657;49.630;11.018;2022-07-10T13:51:02;1.93;;;1.90;;
7231;SDS011;3657;49.630;11.018;2022-07-10T13:53:29;1.70;;;1.70;;
7231;SDS011;3657;49.630;11.018;2022-07-10T13:55:56;2.67;;;2.67;;
7231;SDS011;3657;49.630;11.018;2022-07-10T13:58:24;1.90;;;1.90;;
7231;SDS011;3657;49.630;11.018;2022-07-10T14:00:50;2.40;;;2.30;;
7231;SDS011;3657;49.630;11.018;2022-07-10T14:03:17;2.13;;;2.10;;
7231;SDS011;3657;49.630;11.018;2022-07-10T14:05:46;2.27;;;2.17;;
7231;SDS011;3657;49.630;11.018;2022-07-10T14:08:15;1.50;;;1.50;;
7231;SDS011;3657;49.630;11.018;2022-07-10T14:10:41;2.23;;;2.23;;
7231;SDS011;3657;49.630;11.018;2022-07-10T14:13:08;2.93;;;2.83;;
7231;SDS011;3657;49.630;11.018;2022-07-10T14:15:38;2.13;;;2.10;;
7231;SDS011;3657;49.630;11.018;2022-07-10T14:18:05;2.20;;;2.20;;
7231;SDS011;3657;49.630;11.018;2022-07-10T14:20:32;2.27;;;2.27;;
7231;SDS011;3657;49.630;11.018;2022-07-10T14:23:20;2.10;;;2.10;;
7231;SDS011;3657;49.630;11.018;2022-07-10T14:25:47;2.60;;;2.60;;
7231;SDS011;3657;49.630;11.018;2022-07-10T14:28:14;2.77;;;2.70;;
7231;SDS011;3657;49.630;11.018;2022-07-10T14:30:41;2.47;;;2.37;;
7231;SDS011;3657;49.630;11.018;2022-07-10T14:33:08;2.43;;;2.27;;
7231;SDS011;3657;49.630;11.018;2022-07-10T14:35:35;2.43;;;2.20;;
7231;SDS011;3657;49.630;11.018;2022-07-10T14:38:02;2.23;;;2.13;;
7231;SDS011;3657;49.630;11.018;2022-07-10T14:40:30;3.00;;;2.90;;
7231;SDS011;3657;49.630;11.018;2022-07-10T14:42:56;2.60;;;2.60;;
7231;SDS011;3657;49.630;11.018;2022-07-10T14:45:23;2.23;;;2.20;;
7231;SDS011;3657;49.630;11.018;2022-07-10T14:47:50;2.30;;;2.20;;
7231;SDS011;3657;49.630;11.018;2022-07-10T14:50:17;2.70;;;2.60;;
7231;SDS011;3657;49.630;11.018;2022-07-10T14:52:44;2.50;;;2.40;;
7231;SDS011;3657;49.630;11.018;2022-07-10T14:55:11;2.50;;;2.40;;
7231;SDS011;3657;49.630;11.018;2022-07-10T14:57:41;2.70;;;2.60;;
7231;SDS011;3657;49.630;11.018;2022-07-10T15:00:08;2.40;;;2.30;;
7231;SDS011;3657;49.630;11.018;2022-07-10T15:02:36;1.90;;;1.90;;
7231;SDS011;3657;49.630;11.018;2022-07-10T15:05:03;2.20;;;2.20;;
7231;SDS011;3657;49.630;11.018;2022-07-10T15:07:30;1.90;;;1.90;;
7231;SDS011;3657;49.630;11.018;2022-07-10T15:09:56;2.20;;;2.20;;
7231;SDS011;3657;49.630;11.018;2022-07-10T15:12:23;2.20;;;2.10;;
7231;SDS011;3657;49.630;11.018;2022-07-10T15:14:51;1.93;;;1.80;;
7231;SDS011;3657;49.630;11.018;2022-07-10T15:17:18;2.03;;;2.03;;